createdAt,value
2023-01-04T00:03:42.879Z,101372.56
2023-01-04T00:08:44.670Z,101371.81
2023-01-04T00:13:47.885Z,101375.78
2023-01-04T00:18:51.031Z,101368.09
2023-01-04T00:23:54.568Z,101361.69
2023-01-04T00:29:01.062Z,101356.66
2023-01-04T00:34:04.339Z,101354.19
2023-01-04T00:39:09.927Z,101359.28
2023-01-04T00:44:12.902Z,101351.44
2023-01-04T00:49:14.637Z,101332.06
2023-01-04T00:54:16.961Z,101331.84
2023-01-04T00:59:20.396Z,101342.91
2023-01-04T01:04:23.578Z,101335.22
2023-01-04T01:09:25.217Z,101328.81
2023-01-04T01:14:26.905Z,101316.88
2023-01-04T01:19:29.278Z,101294.06
2023-01-04T01:24:30.911Z,101310.22
2023-01-04T01:29:32.645Z,101305.91
2023-01-04T01:34:34.349Z,101304.91
2023-01-04T01:39:36.018Z,101300.75
2023-01-04T01:44:46.437Z,101292.41
2023-01-04T01:49:50.297Z,101287.97
2023-01-04T01:54:57.268Z,101281.72
2023-01-04T02:00:01.547Z,101272.50
2023-01-04T02:05:03.426Z,101270.59
2023-01-04T02:10:05.646Z,101277.75
2023-01-04T02:15:07.818Z,101267.72
2023-01-04T02:20:28.204Z,101260.97
2023-01-04T02:25:35.212Z,101256.03
2023-01-04T02:31:07.769Z,101244.53
2023-01-04T02:36:16.995Z,101234.13
2023-01-04T02:41:23.525Z,101222.50
2023-01-04T02:46:32.366Z,101212.47
2023-01-04T02:51:36.046Z,101206.84
2023-01-04T02:57:01.123Z,101199.63
2023-01-04T03:02:34.198Z,101187.19
2023-01-04T03:07:55.730Z,101181.31
2023-01-04T03:13:18.780Z,101167.34
2023-01-04T03:18:31.833Z,101163.09
2023-01-04T03:23:54.733Z,101151.69
2023-01-04T03:29:17.235Z,101150.22
2023-01-04T03:34:37.607Z,101134.72
2023-01-04T03:40:14.789Z,101117.56
2023-01-04T03:45:38.590Z,101118.56
2023-01-04T03:50:45.857Z,101104.28
2023-01-04T03:55:48.738Z,101088.94
2023-01-04T04:00:50.647Z,101077.13
2023-01-04T04:06:10.561Z,101057.66
2023-01-04T04:11:30.347Z,101063.00
2023-01-04T04:16:31.972Z,101066.19
2023-01-04T04:21:33.546Z,101057.25
2023-01-04T04:26:35.092Z,101044.28
2023-01-04T04:31:36.766Z,101027.66
2023-01-04T04:36:39.279Z,101030.44
2023-01-04T04:41:43.886Z,101020.66
2023-01-04T04:46:46.789Z,101014.06
2023-01-04T04:51:48.462Z,101010.44
2023-01-04T04:56:50.435Z,101001.50
2023-01-04T05:01:52.165Z,100996.94
2023-01-04T05:06:53.944Z,100985.63
2023-01-04T05:12:14.009Z,100985.75
2023-01-04T05:17:15.736Z,100973.63
2023-01-04T05:22:17.439Z,100974.34
2023-01-04T05:27:19.061Z,100969.56
2023-01-04T05:32:20.622Z,100948.81
2023-01-04T05:37:22.462Z,100929.66
2023-01-04T05:42:27.810Z,100920.63
2023-01-04T05:47:29.689Z,100924.00
2023-01-04T05:52:31.404Z,100918.19
2023-01-04T05:57:33.040Z,100911.28
2023-01-04T06:02:34.676Z,100894.28
2023-01-04T06:07:37.437Z,100884.94
2023-01-04T06:12:40.057Z,100860.09
2023-01-04T06:17:41.753Z,100855.84
2023-01-04T06:22:43.419Z,100860.72
2023-01-04T06:27:45.028Z,100845.19
2023-01-04T06:32:46.592Z,100841.66
2023-01-04T06:37:48.154Z,100824.06
2023-01-04T06:42:49.753Z,100820.16
2023-01-04T06:47:51.322Z,100821.28
2023-01-04T06:52:52.947Z,100808.22
2023-01-04T06:57:59.311Z,100805.66
2023-01-04T07:03:13.935Z,100804.50
2023-01-04T07:08:17.205Z,100789.31
2023-01-04T07:13:18.756Z,100777.63
2023-01-04T07:18:20.410Z,100773.09
2023-01-04T07:23:22.078Z,100763.59
2023-01-04T07:28:41.922Z,100758.34
2023-01-04T07:33:43.526Z,100759.47
2023-01-04T07:38:45.130Z,100771.72
2023-01-04T07:43:46.661Z,100763.59
2023-01-04T07:48:48.266Z,100747.63
2023-01-04T07:53:50.336Z,100764.84
2023-01-04T07:58:56.946Z,100764.59
2023-01-04T08:03:58.599Z,100772.34
2023-01-04T08:09:00.372Z,100754.19
2023-01-04T08:14:02.684Z,100756.50
2023-01-04T08:19:06.426Z,100748.50
2023-01-04T08:24:11.153Z,100722.69
2023-01-04T08:29:13.388Z,100720.47
2023-01-04T08:34:16.018Z,100701.13
2023-01-04T08:39:17.923Z,100659.88
2023-01-04T08:44:24.617Z,100653.09
2023-01-04T08:49:26.512Z,100645.81
2023-01-04T08:54:28.160Z,100647.13
2023-01-04T08:59:29.997Z,100633.88
2023-01-04T09:04:31.706Z,100632.88
2023-01-04T09:09:33.409Z,100628.78
2023-01-04T09:14:35.100Z,100631.38
2023-01-04T09:19:36.810Z,100623.91
2023-01-04T09:24:38.364Z,100618.38
2023-01-04T09:29:41.315Z,100604.47
2023-01-04T09:34:43.243Z,100606.47
2023-01-04T09:39:45.658Z,100594.31
2023-01-04T09:50:25.183Z,100544.50
2023-01-04T09:55:39.399Z,100557.91
2023-01-04T10:00:45.941Z,100544.16
2023-01-04T10:05:47.524Z,100548.34
2023-01-04T10:10:50.719Z,100542.91
2023-01-04T10:15:59.348Z,100525.50
2023-01-04T10:26:47.635Z,100477.81
2023-01-04T10:31:53.944Z,100490.63
2023-01-04T10:37:01.008Z,100498.22
2023-01-04T10:42:31.726Z,100498.34
2023-01-04T10:47:58.238Z,100465.69
2023-01-04T10:53:25.873Z,100455.56
2023-01-04T10:58:33.704Z,100434.94
2023-01-04T11:03:39.644Z,100409.75
2023-01-04T11:08:55.361Z,100414.78
2023-01-04T11:13:57.028Z,100406.94
2023-01-04T11:18:58.804Z,100374.91
2023-01-04T11:24:30.180Z,100387.28
2023-01-04T11:29:33.062Z,100391.91
2023-01-04T11:34:46.442Z,100386.41
2023-01-04T11:39:48.033Z,100377.97
2023-01-04T11:44:59.284Z,100387.81
2023-01-04T11:50:00.868Z,100389.22
2023-01-04T11:55:38.014Z,100376.28
2023-01-04T12:00:52.271Z,100353.75
2023-01-04T12:05:53.909Z,100343.34
2023-01-04T12:10:56.147Z,100350.69
2023-01-04T12:16:03.623Z,100350.63
2023-01-04T12:21:05.446Z,100321.94
2023-01-04T12:26:08.766Z,100311.41
2023-01-04T12:31:19.847Z,100305.50
2023-01-04T12:36:45.179Z,100311.25
2023-01-04T12:42:00.607Z,100310.81
2023-01-04T12:47:22.295Z,100287.88
2023-01-04T12:52:38.276Z,100282.09
2023-01-04T12:57:45.797Z,100261.69
2023-01-04T13:03:26.599Z,100250.19
2023-01-04T13:08:29.165Z,100244.78
2023-01-04T13:13:50.984Z,100242.28
2023-01-04T13:18:59.992Z,100238.69
2023-01-04T13:24:05.090Z,100232.66
2023-01-04T13:29:07.885Z,100219.38
2023-01-04T13:34:30.591Z,100217.81
2023-01-04T13:39:34.341Z,100206.09
2023-01-04T13:45:19.073Z,100178.19
2023-01-04T13:50:37.182Z,100165.78
2023-01-04T13:55:38.952Z,100148.81
2023-01-04T14:00:50.065Z,100116.63
2023-01-04T14:05:54.260Z,100132.41
2023-01-04T14:10:57.629Z,100165.41
2023-01-04T14:16:25.647Z,100131.47
2023-01-04T14:21:35.358Z,100151.72
2023-01-04T14:26:38.614Z,100143.75
2023-01-04T14:31:40.173Z,100142.69
2023-01-04T14:36:42.576Z,100110.66
2023-01-04T14:41:50.177Z,100077.66
2023-01-04T14:46:56.314Z,100101.41
2023-01-04T14:52:02.773Z,100121.84
2023-01-04T14:57:04.838Z,100108.97
2023-01-04T15:02:06.543Z,100120.66
2023-01-04T15:07:35.463Z,100134.09
2023-01-04T15:12:37.077Z,100125.09
2023-01-04T15:17:38.811Z,100120.22
2023-01-04T15:22:40.541Z,100105.78
2023-01-04T15:27:43.114Z,100118.78
2023-01-04T15:32:44.904Z,100090.63
2023-01-04T15:37:47.397Z,100064.41
2023-01-04T15:43:01.130Z,100065.84
2023-01-04T15:48:04.065Z,100081.13
2023-01-04T15:53:06.738Z,100071.25
2023-01-04T15:58:08.352Z,100057.78
2023-01-04T16:03:09.909Z,100048.38
2023-01-04T16:08:11.554Z,100048.06
2023-01-04T16:13:13.129Z,100057.66
2023-01-04T16:18:14.912Z,100036.59
2023-01-04T16:23:16.492Z,100032.78
2023-01-04T16:28:18.180Z,100028.94
2023-01-04T16:33:19.754Z,100021.03
2023-01-04T16:38:21.360Z,99992.19
2023-01-04T16:43:22.904Z,99973.31
2023-01-04T16:48:24.498Z,99978.53
2023-01-04T16:53:26.046Z,99972.53
2023-01-04T16:58:29.609Z,100005.06
2023-01-04T17:03:32.187Z,99987.50
2023-01-04T17:08:33.853Z,99965.25
2023-01-04T17:13:35.705Z,99968.41
2023-01-04T17:18:37.579Z,99953.38
2023-01-04T17:23:42.447Z,99985.38
2023-01-04T17:28:44.272Z,99970.31
2023-01-04T17:33:46.986Z,99987.88
2023-01-04T17:38:49.182Z,99985.53
2023-01-04T17:43:53.434Z,99981.69
2023-01-04T17:49:20.959Z,99963.41
2023-01-04T17:54:16.858Z,99956.91
2023-01-04T17:59:18.494Z,99945.22
2023-01-04T18:04:20.767Z,99938.56
2023-01-04T18:09:24.478Z,99913.75
2023-01-04T18:14:26.348Z,99921.16
2023-01-04T18:19:29.842Z,99908.44
2023-01-04T18:24:36.857Z,99917.66
2023-01-04T18:29:39.497Z,99911.78
2023-01-04T18:34:41.108Z,99924.53
2023-01-04T18:39:42.737Z,99910.78
2023-01-04T18:44:48.566Z,99911.13
2023-01-04T18:49:51.536Z,99888.03
2023-01-04T18:54:53.184Z,99882.16
2023-01-04T18:59:54.803Z,99862.91
2023-01-04T19:04:56.406Z,99860.53
2023-01-04T19:09:57.990Z,99851.97
2023-01-04T19:14:59.605Z,99864.53
2023-01-04T19:20:01.498Z,99843.59
2023-01-04T19:25:03.147Z,99854.81
2023-01-04T19:30:05.497Z,99836.66
2023-01-04T19:35:07.338Z,99825.44
2023-01-04T19:40:09.547Z,99824.56
2023-01-04T19:45:11.829Z,99825.94
2023-01-04T19:50:13.502Z,99832.66
2023-01-04T19:55:15.129Z,99823.56
2023-01-04T20:00:16.951Z,99813.19
2023-01-04T20:05:18.533Z,99833.97
2023-01-04T20:10:20.139Z,99826.56
2023-01-04T20:15:21.690Z,99819.56
2023-01-04T20:20:23.280Z,99819.53
2023-01-04T20:25:24.866Z,99823.03
2023-01-04T20:30:26.452Z,99824.22
2023-01-04T20:35:28.436Z,99829.09
2023-01-04T20:40:30.051Z,99827.94
2023-01-04T20:45:31.654Z,99827.25
2023-01-04T20:50:33.279Z,99824.94
2023-01-04T20:55:40.278Z,99818.22
2023-01-04T21:00:42.253Z,99800.78
2023-01-04T21:05:44.965Z,99777.63
2023-01-04T21:10:46.568Z,99791.38
2023-01-04T21:15:48.212Z,99783.88
2023-01-04T21:20:50.141Z,99741.13
2023-01-04T21:25:52.045Z,99771.59
2023-01-04T21:30:53.681Z,99765.03
2023-01-04T21:35:55.282Z,99764.22
2023-01-04T21:40:56.890Z,99758.91
2023-01-04T21:45:58.493Z,99749.16
2023-01-04T21:51:00.551Z,99739.06
2023-01-04T21:56:09.671Z,99726.81
2023-01-04T22:01:19.420Z,99737.06
2023-01-04T22:06:22.858Z,99721.59
2023-01-04T22:11:24.427Z,99714.22
2023-01-04T22:16:26.138Z,99737.00
2023-01-04T22:21:27.802Z,99715.84
2023-01-04T22:26:29.572Z,99717.53
2023-01-04T22:31:31.269Z,99709.13
2023-01-04T22:36:32.933Z,99700.25
2023-01-04T22:41:34.688Z,99708.81
2023-01-04T22:46:36.718Z,99701.06
2023-01-04T22:51:40.689Z,99692.31
2023-01-04T22:56:42.358Z,99696.72
2023-01-04T23:01:44.033Z,99689.81
2023-01-04T23:06:46.021Z,99685.31
2023-01-04T23:11:47.881Z,99691.00
2023-01-04T23:16:49.781Z,99694.34
2023-01-04T23:21:51.424Z,99706.75
2023-01-04T23:26:53.009Z,99696.00
2023-01-04T23:31:54.611Z,99692.53
2023-01-04T23:36:56.274Z,99692.91
2023-01-04T23:41:57.821Z,99685.69
2023-01-04T23:47:01.249Z,99688.84
2023-01-04T23:52:04.272Z,99680.63
2023-01-04T23:57:05.908Z,99671.22
